Time;durP1;ratioP1;P1;durP2;ratioP2;P2;SDS_P1;SDS_P2;PMS_P1;PMS_P2;Temp;Humidity;BMP_temperature;BMP_pressure;BME280_temperature;BME280_humidity;BME280_pressure;Samples;Min_cycle;Max_cycle;Signal;HPM_P1;HPM_P2
2023/05/14 00:00:00;;;;;;;10.38;6.35;;;13.30;99.90;;;;;;5092895;28;20142;-79
2023/05/14 00:02:25;;;;;;;10.80;6.35;;;13.30;99.90;;;;;;5092887;28;20479;-79
2023/05/14 00:04:52;;;;;;;11.02;6.10;;;13.20;99.90;;;;;;5092612;28;20044;-79
2023/05/14 00:07:17;;;;;;;8.90;6.47;;;13.20;99.90;;;;;;5091967;28;20054;-78
2023/05/14 00:09:43;;;;;;;12.35;6.30;;;13.30;99.90;;;;;;5092553;28;20443;-79
2023/05/14 00:12:08;;;;;;;8.30;5.60;;;13.20;99.90;;;;;;5092649;28;20120;-78
2023/05/14 00:14:34;;;;;;;10.15;6.13;;;13.10;99.90;;;;;;5092397;28;20035;-78
2023/05/14 00:17:00;;;;;;;8.57;5.75;;;13.10;99.90;;;;;;5092876;28;20040;-79
2023/05/14 00:19:26;;;;;;;8.80;5.50;;;13.00;99.90;;;;;;5091941;28;20097;-78
2023/05/14 00:21:51;;;;;;;10.73;6.18;;;13.00;99.90;;;;;;5075788;28;20135;-79
2023/05/14 00:24:17;;;;;;;7.78;5.35;;;12.90;99.90;;;;;;5091836;28;20032;-79
2023/05/14 00:26:43;;;;;;;9.55;5.32;;;12.80;99.90;;;;;;5092202;28;20170;-79
2023/05/14 00:29:08;;;;;;;10.75;5.70;;;12.70;99.90;;;;;;5092407;28;20047;-79
2023/05/14 00:31:34;;;;;;;7.82;5.05;;;12.70;99.90;;;;;;5092502;28;20036;-79
2023/05/14 00:34:00;;;;;;;9.52;5.78;;;12.70;99.90;;;;;;5091855;28;20059;-78
2023/05/14 00:36:25;;;;;;;8.52;5.38;;;12.60;99.90;;;;;;5091983;28;20418;-79
2023/05/14 00:38:51;;;;;;;9.98;5.57;;;12.60;99.90;;;;;;5092184;28;20040;-79
2023/05/14 00:41:16;;;;;;;8.07;5.25;;;12.60;99.90;;;;;;5091899;28;20052;-79
2023/05/14 00:43:42;;;;;;;12.65;5.78;;;12.50;99.90;;;;;;5091961;28;20051;-79
2023/05/14 00:46:08;;;;;;;10.20;5.68;;;12.50;99.90;;;;;;5075712;28;20032;-79
2023/05/14 00:48:34;;;;;;;7.20;5.30;;;12.40;99.90;;;;;;5091769;28;20028;-79
2023/05/14 00:51:00;;;;;;;8.10;5.78;;;12.40;99.90;;;;;;5091765;28;20032;-79
2023/05/14 00:53:26;;;;;;;9.13;5.55;;;12.40;99.90;;;;;;5091648;28;20388;-79
2023/05/14 00:55:51;;;;;;;8.48;6.05;;;12.50;99.90;;;;;;5094973;28;20043;-79
2023/05/14 00:58:18;;;;;;;9.10;5.78;;;12.50;99.90;;;;;;5103208;28;20088;-79
2023/05/14 01:00:43;;;;;;;9.57;5.97;;;12.60;99.90;;;;;;5091863;28;20036;-79
2023/05/14 01:03:09;;;;;;;8.05;5.78;;;12.60;99.90;;;;;;5091969;28;20063;-78
2023/05/14 01:05:52;;;;;;;8.55;5.63;;;12.60;99.90;;;;;;5061662;28;20036;-79
2023/05/14 01:08:39;;;;;;;8.43;5.80;;;12.60;99.90;;;;;;5071659;28;20048;-79
2023/05/14 01:11:28;;;;;;;6.38;5.20;;;12.70;99.90;;;;;;5071517;28;20036;-79
2023/05/14 01:14:20;;;;;;;9.77;5.80;;;12.60;99.90;;;;;;5083511;28;20036;-79
2023/05/14 01:16:49;;;;;;;8.95;5.75;;;12.60;99.90;;;;;;5091666;28;20508;-79
2023/05/14 01:19:26;;;;;;;11.38;5.85;;;12.50;99.90;;;;;;5091359;28;20042;-79
2023/05/14 01:21:52;;;;;;;10.02;5.82;;;12.50;99.90;;;;;;5091617;28;20101;-79
2023/05/14 01:24:17;;;;;;;6.82;5.45;;;12.40;99.90;;;;;;5091583;28;20462;-79
2023/05/14 01:26:43;;;;;;;9.02;5.30;;;12.40;99.90;;;;;;5091658;28;20094;-79
2023/05/14 01:29:21;;;;;;;9.18;5.43;;;12.50;99.90;;;;;;5091345;28;20563;-79
2023/05/14 01:31:48;;;;;;;10.68;4.97;;;12.50;99.90;;;;;;5091150;28;20033;-79
2023/05/14 01:34:15;;;;;;;4.90;4.40;;;12.50;99.90;;;;;;5090994;28;20067;-79
2023/05/14 01:36:42;;;;;;;8.75;5.43;;;12.40;99.90;;;;;;5059080;28;20132;-79
2023/05/14 01:39:10;;;;;;;6.53;5.10;;;12.30;99.90;;;;;;5091035;28;20047;-79
2023/05/14 01:41:38;;;;;;;7.90;5.10;;;12.30;99.90;;;;;;5091163;28;20036;-79
2023/05/14 01:44:04;;;;;;;8.13;5.10;;;12.20;99.90;;;;;;5091389;28;20092;-79
2023/05/14 01:46:32;;;;;;;11.73;5.78;;;12.20;99.90;;;;;;5091117;28;20039;-79
2023/05/14 01:48:58;;;;;;;6.75;4.65;;;12.20;99.90;;;;;;5091097;28;20035;-78
2023/05/14 01:51:24;;;;;;;10.82;5.28;;;12.20;99.90;;;;;;5091261;28;20028;-78
2023/05/14 01:53:50;;;;;;;9.85;5.38;;;12.10;99.90;;;;;;5091064;28;20477;-79
2023/05/14 01:56:20;;;;;;;7.95;4.78;;;11.90;99.90;;;;;;5093474;28;20123;-79
2023/05/14 01:58:46;;;;;;;12.95;5.18;;;11.80;99.90;;;;;;5081485;28;20032;-79
2023/05/14 02:01:11;;;;;;;9.60;5.45;;;11.80;99.90;;;;;;5091609;28;20125;-79
2023/05/14 02:03:37;;;;;;;8.45;4.93;;;11.60;99.90;;;;;;5091358;28;20044;-79
2023/05/14 02:06:02;;;;;;;9.02;5.45;;;11.50;99.90;;;;;;5091356;28;20085;-79
2023/05/14 02:08:28;;;;;;;7.35;5.18;;;11.40;99.90;;;;;;5090989;28;20371;-79
2023/05/14 02:10:53;;;;;;;7.15;5.35;;;11.40;99.90;;;;;;5091269;28;20067;-79
2023/05/14 02:13:19;;;;;;;9.93;5.63;;;11.30;99.90;;;;;;5091601;28;20040;-79
2023/05/14 02:15:45;;;;;;;11.38;6.32;;;11.30;99.90;;;;;;5091956;28;20028;-79
2023/05/14 02:18:11;;;;;;;10.35;5.88;;;11.30;99.90;;;;;;5055688;28;20430;-79
2023/05/14 02:20:36;;;;;;;13.10;6.20;;;11.20;99.90;;;;;;5082006;28;20467;-79
2023/05/14 02:23:02;;;;;;;10.88;6.75;;;11.20;99.90;;;;;;5091148;28;20044;-79
2023/05/14 02:25:27;;;;;;;11.07;7.28;;;11.20;99.90;;;;;;5090749;28;20078;-79
2023/05/14 02:27:53;;;;;;;13.52;7.55;;;11.30;99.90;;;;;;5090679;28;20040;-80
2023/05/14 02:30:20;;;;;;;11.20;7.70;;;11.40;99.90;;;;;;5090892;28;20032;-79
2023/05/14 02:32:46;;;;;;;10.18;7.43;;;11.50;99.90;;;;;;5091352;28;20039;-79
2023/05/14 02:35:11;;;;;;;12.20;8.65;;;11.60;99.90;;;;;;5055448;28;20036;-80
2023/05/14 02:37:37;;;;;;;13.30;8.45;;;11.60;99.90;;;;;;5082283;28;20078;-79
2023/05/14 02:40:03;;;;;;;14.35;8.48;;;11.60;99.90;;;;;;5091335;28;20040;-80
2023/05/14 02:42:28;;;;;;;11.88;8.23;;;11.50;99.90;;;;;;5092000;28;20043;-80
2023/05/14 02:44:54;;;;;;;12.40;8.65;;;11.50;99.90;;;;;;5092393;28;20039;-80
2023/05/14 02:47:20;;;;;;;11.05;8.10;;;11.50;99.90;;;;;;5092667;28;20042;-80
2023/05/14 02:49:45;;;;;;;13.75;8.00;;;11.60;99.90;;;;;;5096386;28;20499;-80
2023/05/14 02:52:11;;;;;;;13.10;8.55;;;11.60;99.90;;;;;;5095640;28;20031;-80
2023/05/14 02:54:36;;;;;;;11.40;7.72;;;11.60;99.90;;;;;;5078316;28;20093;-80
2023/05/14 02:57:02;;;;;;;13.27;6.95;;;11.60;99.90;;;;;;5108185;28;20040;-80
2023/05/14 02:59:28;;;;;;;11.77;8.68;;;11.60;99.90;;;;;;5096450;28;20040;-80
2023/05/14 03:01:54;;;;;;;14.60;8.30;;;11.60;99.90;;;;;;5078734;28;20040;-80
2023/05/14 03:04:19;;;;;;;12.45;7.28;;;11.50;99.90;;;;;;5095742;28;20527;-80
2023/05/14 03:06:45;;;;;;;13.65;7.90;;;11.50;99.90;;;;;;5096335;28;20075;-80
2023/05/14 03:09:10;;;;;;;10.43;7.43;;;11.60;99.90;;;;;;5078007;28;20571;-79
2023/05/14 03:11:36;;;;;;;14.35;7.95;;;11.60;99.90;;;;;;5095216;28;20450;-80
2023/05/14 03:14:02;;;;;;;14.55;7.38;;;11.60;99.90;;;;;;5095607;28;20062;-79
2023/05/14 03:16:27;;;;;;;9.90;7.05;;;11.60;99.90;;;;;;5094802;28;20039;-79
2023/05/14 03:18:53;;;;;;;14.25;7.38;;;11.50;99.90;;;;;;5067785;28;20098;-80
2023/05/14 03:21:18;;;;;;;8.82;6.32;;;11.50;99.90;;;;;;5091276;28;20036;-80
2023/05/14 03:23:44;;;;;;;16.05;7.18;;;11.50;99.90;;;;;;5094872;28;20463;-80
2023/05/14 03:26:09;;;;;;;11.52;7.28;;;11.50;99.90;;;;;;5095134;28;20051;-79
2023/05/14 03:28:35;;;;;;;10.95;6.78;;;11.50;99.90;;;;;;5095880;28;20047;-80
2023/05/14 03:31:00;;;;;;;13.80;6.82;;;11.50;99.90;;;;;;5095736;28;20036;-80
2023/05/14 03:33:26;;;;;;;12.25;7.13;;;11.60;99.90;;;;;;5095906;28;20032;-80
2023/05/14 03:35:52;;;;;;;15.13;7.57;;;11.50;99.90;;;;;;5095051;28;20048;-80
2023/05/14 03:38:17;;;;;;;14.98;8.02;;;11.40;99.90;;;;;;5094757;28;20043;-80
2023/05/14 03:40:44;;;;;;;12.43;7.53;;;11.40;99.90;;;;;;5089547;28;20060;-81
2023/05/14 03:43:10;;;;;;;17.75;8.00;;;11.30;99.90;;;;;;5089101;28;20103;-80
2023/05/14 03:45:36;;;;;;;13.23;7.60;;;11.20;99.90;;;;;;5094543;28;20040;-80
2023/05/14 03:48:01;;;;;;;11.98;7.70;;;11.10;99.90;;;;;;5094050;28;20040;-81
2023/05/14 03:50:27;;;;;;;13.93;7.85;;;11.10;99.90;;;;;;5094058;28;20044;-80
2023/05/14 03:52:53;;;;;;;11.15;7.90;;;11.00;99.90;;;;;;5066445;28;20029;-80
2023/05/14 03:55:20;;;;;;;15.32;8.55;;;10.90;99.90;;;;;;5090559;28;20112;-81
2023/05/14 03:57:46;;;;;;;17.95;8.10;;;10.80;99.90;;;;;;5092114;28;20036;-81
2023/05/14 04:00:14;;;;;;;13.50;8.70;;;10.80;99.90;;;;;;5076596;28;20097;-80
2023/05/14 04:02:39;;;;;;;18.25;8.90;;;10.90;99.90;;;;;;5094522;28;20040;-81
2023/05/14 04:05:05;;;;;;;12.73;8.32;;;10.90;99.90;;;;;;5093802;28;20518;-81
2023/05/14 04:07:31;;;;;;;14.32;9.40;;;10.90;99.90;;;;;;5093070;28;20036;-80
2023/05/14 04:09:56;;;;;;;14.98;9.45;;;10.80;99.90;;;;;;5098361;28;20032;-81
2023/05/14 04:12:22;;;;;;;18.98;9.80;;;10.80;99.90;;;;;;5094630;28;20119;-81
2023/05/14 04:14:47;;;;;;;20.88;10.65;;;10.70;99.90;;;;;;5093769;28;20028;-81
2023/05/14 04:17:13;;;;;;;15.20;10.02;;;10.70;99.90;;;;;;5093772;28;20057;-81
2023/05/14 04:19:39;;;;;;;18.33;10.07;;;10.70;99.90;;;;;;5093831;28;20052;-81
2023/05/14 04:22:04;;;;;;;19.42;10.75;;;10.80;99.90;;;;;;5076839;28;20438;-81
2023/05/14 04:24:30;;;;;;;15.45;8.77;;;10.80;99.90;;;;;;5075445;28;20578;-82
2023/05/14 04:26:56;;;;;;;15.20;9.10;;;10.80;99.90;;;;;;5079801;28;20040;-82
2023/05/14 04:29:21;;;;;;;16.90;9.20;;;10.80;99.90;;;;;;5093029;28;20035;-81
2023/05/14 04:31:48;;;;;;;15.52;9.05;;;10.80;99.90;;;;;;5092953;28;20032;-81
2023/05/14 04:34:14;;;;;;;14.68;9.02;;;10.80;99.90;;;;;;5093353;28;20043;-81
2023/05/14 04:36:40;;;;;;;20.52;9.73;;;10.80;99.90;;;;;;5093044;28;20442;-81
2023/05/14 04:39:05;;;;;;;15.93;8.43;;;10.90;99.90;;;;;;5093628;28;20177;-81
2023/05/14 04:41:31;;;;;;;13.98;7.97;;;10.90;99.90;;;;;;5093407;28;20130;-81
2023/05/14 04:44:00;;;;;;;15.32;8.40;;;11.00;99.90;;;;;;5092904;28;20028;-81
2023/05/14 04:46:25;;;;;;;17.15;7.70;;;11.00;99.90;;;;;;5093011;28;20306;-81
2023/05/14 04:48:51;;;;;;;16.23;8.00;;;11.00;99.90;;;;;;5092922;28;20078;-81
2023/05/14 04:51:16;;;;;;;15.07;7.95;;;11.00;99.90;;;;;;5093136;28;20082;-81
2023/05/14 04:53:42;;;;;;;14.73;7.15;;;11.10;99.90;;;;;;5093403;28;20119;-81
2023/05/14 04:56:07;;;;;;;16.38;7.97;;;11.20;99.90;;;;;;5098457;28;20040;-81
2023/05/14 04:58:33;;;;;;;13.88;7.35;;;11.30;99.90;;;;;;5102635;28;20169;-81
2023/05/14 05:00:58;;;;;;;13.10;7.65;;;11.50;99.90;;;;;;5095036;28;20040;-81
2023/05/14 05:03:24;;;;;;;12.10;6.60;;;11.60;99.90;;;;;;5093659;28;20040;-81
2023/05/14 05:05:50;;;;;;;10.82;6.85;;;11.70;99.90;;;;;;5092485;28;20048;-82
2023/05/14 05:08:16;;;;;;;11.43;6.82;;;11.70;99.90;;;;;;5094302;28;20092;-81
2023/05/14 05:10:41;;;;;;;15.63;6.80;;;11.80;99.90;;;;;;5092863;28;20052;-81
2023/05/14 05:13:07;;;;;;;14.27;7.00;;;11.90;99.90;;;;;;5093348;28;20047;-81
2023/05/14 05:15:32;;;;;;;15.27;6.97;;;11.80;99.90;;;;;;5093744;28;20073;-81
2023/05/14 05:17:58;;;;;;;14.20;6.75;;;11.90;99.90;;;;;;5093028;28;20118;-82
2023/05/14 05:20:24;;;;;;;17.85;6.97;;;12.00;99.90;;;;;;5067290;28;20120;-81
2023/05/14 05:22:49;;;;;;;15.52;6.70;;;12.10;99.90;;;;;;5073446;28;20044;-82
2023/05/14 05:25:15;;;;;;;18.67;7.00;;;12.10;99.90;;;;;;5068732;28;20095;-81
2023/05/14 05:27:40;;;;;;;15.38;7.22;;;12.20;99.90;;;;;;5079629;28;20052;-82
2023/05/14 05:30:07;;;;;;;17.63;7.15;;;12.20;99.90;;;;;;5092003;28;20055;-83
2023/05/14 05:32:32;;;;;;;17.17;7.47;;;12.20;99.90;;;;;;5092873;28;20043;-82
2023/05/14 05:34:58;;;;;;;15.75;8.07;;;12.30;99.90;;;;;;5093327;28;20032;-82
2023/05/14 05:37:23;;;;;;;18.65;8.23;;;12.30;99.90;;;;;;5092629;28;20124;-81
2023/05/14 05:39:49;;;;;;;17.35;8.05;;;12.40;99.90;;;;;;5093179;28;20499;-82
2023/05/14 05:42:14;;;;;;;15.93;7.97;;;12.50;99.90;;;;;;5093219;28;20116;-82
2023/05/14 05:44:40;;;;;;;17.55;8.05;;;12.60;99.90;;;;;;5093194;28;20085;-82
2023/05/14 05:47:06;;;;;;;21.45;9.45;;;12.70;99.90;;;;;;5092463;28;20085;-84
2023/05/14 05:49:31;;;;;;;18.17;9.52;;;12.80;99.90;;;;;;5093104;28;20036;-82
2023/05/14 05:51:57;;;;;;;18.80;9.02;;;12.90;99.90;;;;;;5075820;28;20115;-81
2023/05/14 05:54:23;;;;;;;23.65;9.70;;;13.00;99.90;;;;;;5092737;28;20452;-82
2023/05/14 05:56:49;;;;;;;16.70;8.65;;;13.00;99.90;;;;;;5087193;28;20077;-82
2023/05/14 05:59:15;;;;;;;22.38;9.05;;;13.10;99.90;;;;;;5095941;28;20039;-83
2023/05/14 06:01:42;;;;;;;15.18;8.35;;;13.10;99.90;;;;;;5092932;28;20036;-81
2023/05/14 06:04:08;;;;;;;18.25;8.30;;;13.20;99.90;;;;;;5092959;28;20036;-83
2023/05/14 06:06:34;;;;;;;15.80;7.45;;;13.40;99.90;;;;;;5093326;28;20043;-83
2023/05/14 06:09:00;;;;;;;14.52;7.63;;;13.50;99.90;;;;;;5092327;28;20032;-82
2023/05/14 06:11:26;;;;;;;14.27;8.13;;;13.60;99.90;;;;;;5092282;28;20028;-82
2023/05/14 06:13:52;;;;;;;14.57;7.47;;;13.80;99.90;;;;;;5092871;28;20044;-81
2023/05/14 06:16:18;;;;;;;12.02;6.82;;;14.00;99.90;;;;;;5094626;28;20040;-82
2023/05/14 06:18:44;;;;;;;15.73;7.07;;;14.20;99.90;;;;;;5077704;28;20509;-82
2023/05/14 06:21:09;;;;;;;17.05;7.63;;;14.40;99.90;;;;;;5094317;28;20050;-82
2023/05/14 06:23:35;;;;;;;14.77;8.07;;;14.50;99.90;;;;;;5092715;28;20168;-82
2023/05/14 06:26:01;;;;;;;16.60;6.63;;;14.70;99.90;;;;;;5093584;28;20048;-81
2023/05/14 06:28:26;;;;;;;16.15;6.75;;;14.80;99.90;;;;;;5091836;28;20047;-81
2023/05/14 06:30:52;;;;;;;11.63;6.03;;;14.90;99.90;;;;;;5075535;28;20119;-82
2023/05/14 06:33:20;;;;;;;11.70;6.00;;;15.00;99.90;;;;;;5093963;28;20062;-82
2023/05/14 06:35:46;;;;;;;13.10;6.43;;;15.10;99.90;;;;;;5092389;28;20089;-83
2023/05/14 06:38:11;;;;;;;14.20;6.03;;;15.30;99.90;;;;;;5093601;28;20052;-83
2023/05/14 06:40:37;;;;;;;14.40;6.43;;;15.30;99.90;;;;;;5092292;28;20047;-81
2023/05/14 06:43:03;;;;;;;12.02;5.72;;;15.40;99.90;;;;;;5091948;28;20419;-81
2023/05/14 06:45:29;;;;;;;16.73;5.70;;;15.40;99.90;;;;;;5092015;28;20503;-82
2023/05/14 06:47:54;;;;;;;14.18;5.70;;;15.40;99.90;;;;;;5092368;28;20044;-83
2023/05/14 06:50:20;;;;;;;13.10;5.63;;;15.40;99.90;;;;;;5093435;28;20065;-82
2023/05/14 06:52:45;;;;;;;14.68;5.68;;;15.20;99.90;;;;;;5092372;28;20048;-82
2023/05/14 06:55:11;;;;;;;12.00;5.53;;;15.20;99.90;;;;;;5092234;28;20036;-83
2023/05/14 06:57:37;;;;;;;11.80;5.60;;;15.20;99.90;;;;;;5106896;28;20040;-83
2023/05/14 07:00:03;;;;;;;13.40;5.78;;;15.10;99.90;;;;;;5092471;28;20196;-82
2023/05/14 07:02:29;;;;;;;8.63;5.65;;;15.10;99.90;;;;;;5075434;28;20043;-82
2023/05/14 07:04:54;;;;;;;14.20;6.45;;;15.10;99.90;;;;;;5092728;28;20436;-83
2023/05/14 07:07:20;;;;;;;13.45;5.93;;;15.10;99.90;;;;;;5091761;28;20059;-83
2023/05/14 07:09:46;;;;;;;14.43;6.15;;;15.10;99.90;;;;;;5086398;28;20083;-82
2023/05/14 07:12:12;;;;;;;13.55;6.18;;;15.10;99.90;;;;;;5071898;28;20214;-82
2023/05/14 07:14:37;;;;;;;13.20;6.15;;;15.00;99.90;;;;;;5091033;28;20399;-81
2023/05/14 07:17:03;;;;;;;13.40;5.95;;;15.00;99.90;;;;;;5091480;28;20040;-83
2023/05/14 07:19:29;;;;;;;12.75;6.63;;;14.90;99.90;;;;;;5092929;28;20040;-83
2023/05/14 07:21:55;;;;;;;10.25;6.65;;;15.00;99.90;;;;;;5092750;28;20089;-83
2023/05/14 07:24:22;;;;;;;11.13;6.78;;;15.00;99.90;;;;;;5062726;28;20044;-84
2023/05/14 07:26:47;;;;;;;12.75;6.80;;;15.00;99.90;;;;;;5092682;28;20445;-83
2023/05/14 07:29:13;;;;;;;14.93;7.20;;;15.20;99.90;;;;;;5091413;28;20035;-82
2023/05/14 07:31:39;;;;;;;10.10;6.30;;;15.10;99.90;;;;;;5093222;28;20035;-82
2023/05/14 07:34:04;;;;;;;10.30;6.57;;;15.20;99.90;;;;;;5093107;28;20044;-82
2023/05/14 07:36:30;;;;;;;16.25;6.65;;;15.30;99.90;;;;;;5082212;28;20046;-84
2023/05/14 07:38:56;;;;;;;12.80;7.25;;;15.30;99.90;;;;;;5088171;28;20079;-84
2023/05/14 07:41:21;;;;;;;11.60;7.18;;;15.30;99.90;;;;;;5089660;28;20050;-82
2023/05/14 07:43:47;;;;;;;16.92;7.10;;;15.40;99.90;;;;;;5097246;28;20028;-83
2023/05/14 07:46:13;;;;;;;12.27;7.03;;;15.50;99.90;;;;;;5096317;28;20415;-82
2023/05/14 07:48:39;;;;;;;12.90;6.65;;;15.60;99.90;;;;;;5080772;28;20043;-82
2023/05/14 07:51:04;;;;;;;12.55;6.72;;;15.80;99.90;;;;;;5095610;28;20036;-81
2023/05/14 07:53:30;;;;;;;11.10;7.15;;;16.00;99.90;;;;;;5095037;28;20411;-81
2023/05/14 07:55:56;;;;;;;13.85;7.18;;;16.30;99.90;;;;;;5078249;28;20134;-81
2023/05/14 07:58:22;;;;;;;14.43;7.13;;;16.40;99.90;;;;;;5107141;28;20047;-81
2023/05/14 08:00:47;;;;;;;16.50;7.13;;;16.30;99.90;;;;;;5095759;28;20040;-81
2023/05/14 08:03:13;;;;;;;14.50;7.15;;;16.50;99.90;;;;;;5096041;28;20036;-83
2023/05/14 08:05:39;;;;;;;9.90;6.13;;;16.50;99.90;;;;;;5095554;28;20039;-82
2023/05/14 08:08:04;;;;;;;13.32;6.60;;;16.50;99.90;;;;;;5097173;28;20055;-81
2023/05/14 08:10:30;;;;;;;14.75;7.22;;;16.60;99.90;;;;;;5066555;28;20071;-80
2023/05/14 08:12:55;;;;;;;12.85;6.38;;;16.60;99.90;;;;;;5075183;28;20047;-80
2023/05/14 08:15:21;;;;;;;11.75;6.45;;;16.70;99.90;;;;;;5093886;28;20032;-81
2023/05/14 08:17:47;;;;;;;12.50;6.30;;;16.70;99.90;;;;;;5099159;28;20044;-82
2023/05/14 08:20:13;;;;;;;10.57;6.07;;;16.80;99.90;;;;;;5094985;28;20032;-81
2023/05/14 08:22:38;;;;;;;9.60;6.13;;;17.10;99.90;;;;;;5098358;28;20044;-81
2023/05/14 08:25:05;;;;;;;8.93;5.88;;;17.20;99.90;;;;;;5095022;28;20122;-80
2023/05/14 08:27:31;;;;;;;12.10;6.25;;;17.40;99.90;;;;;;5095646;28;20127;-81
2023/05/14 08:29:56;;;;;;;15.30;5.63;;;17.60;99.90;;;;;;5094926;28;20032;-81
2023/05/14 08:32:22;;;;;;;11.45;5.70;;;17.80;99.90;;;;;;5096135;28;20047;-83
2023/05/14 08:34:47;;;;;;;14.20;6.47;;;18.10;99.90;;;;;;5095063;28;20031;-83
2023/05/14 08:37:13;;;;;;;12.13;5.20;;;18.00;99.90;;;;;;5094802;28;20114;-80
2023/05/14 08:39:38;;;;;;;10.60;5.32;;;18.00;99.90;;;;;;5093924;28;20127;-80
2023/05/14 08:42:05;;;;;;;12.05;6.03;;;18.20;99.90;;;;;;5094345;28;20130;-80
2023/05/14 08:44:52;;;;;;;14.63;5.75;;;18.40;99.90;;;;;;5093917;28;20088;-80
2023/05/14 08:47:20;;;;;;;10.73;5.25;;;18.60;99.90;;;;;;5092619;28;20523;-80
2023/05/14 08:49:51;;;;;;;9.80;5.03;;;18.40;99.90;;;;;;5093009;28;20495;-80
2023/05/14 08:52:18;;;;;;;9.75;5.13;;;18.50;99.90;;;;;;5092917;28;20035;-79
2023/05/14 08:54:45;;;;;;;9.93;4.95;;;18.60;99.90;;;;;;5064846;28;20041;-81
2023/05/14 08:57:11;;;;;;;9.45;5.38;;;18.70;99.90;;;;;;5104723;28;20032;-80
2023/05/14 08:59:37;;;;;;;9.30;5.47;;;18.70;99.90;;;;;;5094283;28;20040;-79
2023/05/14 09:02:05;;;;;;;9.02;4.78;;;18.60;99.90;;;;;;5064182;28;20045;-79
2023/05/14 09:04:31;;;;;;;13.60;6.32;;;18.60;99.90;;;;;;5090818;28;20104;-81
2023/05/14 09:07:00;;;;;;;11.00;5.43;;;18.50;99.90;;;;;;5093074;28;20044;-80
2023/05/14 09:09:26;;;;;;;11.25;5.30;;;18.50;99.90;;;;;;5092913;28;20072;-80
2023/05/14 09:11:53;;;;;;;10.82;5.90;;;18.30;99.90;;;;;;5067510;28;20582;-79
2023/05/14 09:14:19;;;;;;;15.05;5.80;;;18.40;99.90;;;;;;5087439;28;20043;-80
2023/05/14 09:16:47;;;;;;;13.00;5.57;;;18.60;99.90;;;;;;5092128;28;20094;-79
2023/05/14 09:19:14;;;;;;;11.20;6.00;;;18.80;99.90;;;;;;5092970;28;20040;-80
2023/05/14 09:21:40;;;;;;;8.73;5.40;;;19.00;99.90;;;;;;5092284;28;20084;-79
2023/05/14 09:24:06;;;;;;;8.60;5.38;;;19.10;99.90;;;;;;5091362;28;20039;-80
2023/05/14 09:26:33;;;;;;;9.05;5.57;;;19.20;99.90;;;;;;5075510;28;20048;-81
2023/05/14 09:29:00;;;;;;;11.48;5.55;;;19.10;99.90;;;;;;5109128;28;20488;-80
2023/05/14 09:31:31;;;;;;;10.05;5.50;;;19.20;99.90;;;;;;5092141;28;20043;-79
2023/05/14 09:33:57;;;;;;;9.60;5.90;;;19.10;99.90;;;;;;5093880;28;20496;-80
2023/05/14 09:36:26;;;;;;;8.63;4.95;;;19.00;99.90;;;;;;5093142;28;20044;-80
2023/05/14 09:38:55;;;;;;;10.63;5.40;;;18.90;99.90;;;;;;5092573;28;20533;-79
2023/05/14 09:41:21;;;;;;;11.38;5.80;;;19.00;99.90;;;;;;5091347;28;20039;-80
2023/05/14 09:43:48;;;;;;;11.20;5.82;;;19.20;99.90;;;;;;5091320;28;20047;-79
2023/05/14 09:46:13;;;;;;;8.45;4.97;;;19.30;99.90;;;;;;5062741;28;20044;-79
2023/05/14 09:48:39;;;;;;;7.35;5.18;;;19.40;99.90;;;;;;5089329;28;20028;-80
2023/05/14 09:51:04;;;;;;;8.50;5.20;;;19.50;99.90;;;;;;5092859;28;20050;-78
2023/05/14 09:53:33;;;;;;;8.98;5.25;;;19.50;99.90;;;;;;5091248;28;20443;-79
2023/05/14 09:55:58;;;;;;;8.80;5.60;;;19.60;99.90;;;;;;5095413;28;20083;-78
2023/05/14 09:58:24;;;;;;;9.50;5.07;;;19.80;99.90;;;;;;5100167;28;20455;-79
2023/05/14 10:00:50;;;;;;;10.40;4.80;;;20.00;99.90;;;;;;5090349;28;20416;-79
2023/05/14 10:03:18;;;;;;;10.02;5.40;;;20.10;99.90;;;;;;5090672;28;20036;-80
2023/05/14 10:05:46;;;;;;;8.77;5.78;;;20.30;99.90;;;;;;5059788;28;20037;-79
2023/05/14 10:08:18;;;;;;;10.73;5.38;;;20.40;99.90;;;;;;5090647;28;20040;-79
2023/05/14 10:10:44;;;;;;;9.15;5.43;;;20.50;99.90;;;;;;5073788;28;20555;-78
2023/05/14 10:13:13;;;;;;;7.43;4.78;;;20.70;99.90;;;;;;5091259;28;20063;-79
2023/05/14 10:15:48;;;;;;;8.30;4.78;;;20.80;99.90;;;;;;5062830;28;20119;-80
2023/05/14 10:18:21;;;;;;;10.43;5.40;;;20.70;99.90;;;;;;5092017;28;20084;-79
2023/05/14 10:20:52;;;;;;;8.35;5.07;;;20.70;99.90;;;;;;5090162;28;20048;-80
2023/05/14 10:23:18;;;;;;;7.40;5.13;;;20.70;99.90;;;;;;5089861;28;20127;-79
2023/05/14 10:25:44;;;;;;;8.32;5.22;;;20.80;99.90;;;;;;5090882;28;20434;-79
2023/05/14 10:28:10;;;;;;;7.90;4.68;;;20.90;99.90;;;;;;5090366;28;20395;-79
2023/05/14 10:30:42;;;;;;;11.43;5.20;;;20.80;99.90;;;;;;5090861;28;20032;-80
2023/05/14 10:33:11;;;;;;;8.98;5.00;;;20.70;99.90;;;;;;5090917;28;20040;-79
2023/05/14 10:36:01;;;;;;;5.95;4.50;;;20.60;99.90;;;;;;5090745;28;20047;-80
2023/05/14 10:38:37;;;;;;;8.73;5.07;;;20.60;99.90;;;;;;5083224;28;20047;-80
2023/05/14 10:41:06;;;;;;;7.53;4.85;;;20.40;99.90;;;;;;5076217;28;20043;-80
2023/05/14 10:43:39;;;;;;;9.43;4.88;;;20.20;99.90;;;;;;5091433;28;20036;-79
2023/05/14 10:46:06;;;;;;;7.72;4.82;;;20.30;99.90;;;;;;5091601;28;20040;-80
2023/05/14 10:48:33;;;;;;;11.07;5.28;;;20.60;99.90;;;;;;5077396;28;20132;-80
2023/05/14 10:50:59;;;;;;;14.70;6.38;;;20.60;99.90;;;;;;5074714;28;20173;-80
2023/05/14 10:53:39;;;;;;;10.35;5.65;;;20.70;99.90;;;;;;5092607;28;20036;-79
2023/05/14 10:56:12;;;;;;;9.15;6.10;;;21.00;99.90;;;;;;5095419;28;20043;-79
2023/05/14 10:58:42;;;;;;;12.70;5.95;;;21.30;99.90;;;;;;5101526;28;20119;-78
2023/05/14 11:01:10;;;;;;;11.43;6.60;;;21.60;99.90;;;;;;5091557;28;20125;-80
2023/05/14 11:03:41;;;;;;;10.13;5.72;;;21.70;99.90;;;;;;5092091;28;20100;-79
2023/05/14 11:06:08;;;;;;;16.40;6.50;;;21.80;99.90;;;;;;5091995;28;20036;-79
2023/05/14 11:08:33;;;;;;;9.05;6.00;;;22.00;99.90;;;;;;5091373;28;20028;-79
2023/05/14 11:10:59;;;;;;;9.75;6.43;;;22.10;99.90;;;;;;5094540;28;20040;-79
2023/05/14 11:13:28;;;;;;;9.40;6.53;;;22.20;99.90;;;;;;5096273;28;20429;-80
2023/05/14 11:15:54;;;;;;;10.55;5.88;;;22.30;99.90;;;;;;5093495;28;20043;-80
2023/05/14 11:18:32;;;;;;;8.40;5.40;;;22.40;99.90;;;;;;5087587;28;20055;-80
2023/05/14 11:20:59;;;;;;;10.75;5.63;;;22.60;99.90;;;;;;5094727;28;20040;-78
2023/05/14 11:23:25;;;;;;;6.85;5.63;;;22.80;99.90;;;;;;5072758;28;20160;-80
2023/05/14 11:25:54;;;;;;;8.95;5.68;;;23.00;99.90;;;;;;5094304;28;20518;-80
2023/05/14 11:28:25;;;;;;;11.95;5.20;;;23.10;99.90;;;;;;5069712;28;20142;-79
2023/05/14 11:30:51;;;;;;;9.38;5.05;;;23.20;99.90;;;;;;5093419;28;20117;-82
2023/05/14 11:33:18;;;;;;;6.72;5.30;;;23.20;99.90;;;;;;5086733;28;20067;-79
2023/05/14 11:35:45;;;;;;;7.30;5.55;;;23.20;99.90;;;;;;5094153;28;20047;-82
2023/05/14 11:38:18;;;;;;;7.55;4.97;;;23.10;99.90;;;;;;5096166;28;20036;-81
2023/05/14 11:40:54;;;;;;;8.23;5.20;;;23.10;99.90;;;;;;5089227;28;20044;-82
2023/05/14 11:43:22;;;;;;;9.82;5.50;;;23.00;99.90;;;;;;5091097;28;20462;-81
2023/05/14 11:45:52;;;;;;;8.38;5.07;;;23.10;99.90;;;;;;5094420;28;20044;-80
2023/05/14 11:48:19;;;;;;;7.28;5.15;;;23.20;99.90;;;;;;5093187;28;20385;-80
2023/05/14 11:50:47;;;;;;;8.55;5.00;;;23.50;99.90;;;;;;5092464;28;20036;-79
2023/05/14 11:53:25;;;;;;;9.48;5.47;;;23.60;99.90;;;;;;5097698;28;20574;-80
2023/05/14 11:55:58;;;;;;;8.57;4.90;;;23.60;99.90;;;;;;5084643;28;20046;-80
2023/05/14 11:58:24;;;;;;;8.25;4.82;;;23.80;99.90;;;;;;5095747;28;20044;-81
2023/05/14 12:00:51;;;;;;;8.50;4.90;;;24.00;99.90;;;;;;5094509;28;20104;-81
2023/05/14 12:03:24;;;;;;;6.97;4.80;;;24.00;99.90;;;;;;5095883;28;20512;-81
2023/05/14 12:06:00;;;;;;;8.75;4.70;;;24.10;99.90;;;;;;5080143;28;20116;-80
2023/05/14 12:08:30;;;;;;;7.55;4.97;;;24.40;99.90;;;;;;5094531;28;20044;-81
2023/05/14 12:10:58;;;;;;;5.95;4.53;;;24.60;99.90;;;;;;5093602;28;20032;-80
2023/05/14 12:13:26;;;;;;;5.63;4.55;;;24.70;99.90;;;;;;5094321;28;20067;-81
2023/05/14 12:15:57;;;;;;;14.68;4.57;;;24.90;99.90;;;;;;5082378;28;20035;-80
2023/05/14 12:18:30;;;;;;;9.55;4.43;;;25.00;99.90;;;;;;5091237;28;20148;-80
2023/05/14 12:21:02;;;;;;;9.20;4.40;;;25.00;99.90;;;;;;5093956;28;20541;-80
2023/05/14 12:23:31;;;;;;;6.45;4.28;;;25.00;99.90;;;;;;5090411;28;20455;-81
2023/05/14 12:26:07;;;;;;;8.57;4.03;;;25.00;99.90;;;;;;5096110;28;20530;-81
2023/05/14 12:28:33;;;;;;;7.22;4.22;;;24.80;99.90;;;;;;5081803;28;20044;-80
2023/05/14 12:30:59;;;;;;;5.70;4.60;;;25.00;99.90;;;;;;5090353;28;20094;-80
2023/05/14 12:33:25;;;;;;;6.88;4.13;;;25.10;99.90;;;;;;5094104;28;20040;-82
2023/05/14 12:36:00;;;;;;;8.35;4.30;;;25.00;99.90;;;;;;5076413;28;20040;-81
2023/05/14 12:38:26;;;;;;;4.60;3.92;;;24.90;99.90;;;;;;5084189;28;20036;-81